sensor_id;sensor_type;location;lat;lon;timestamp;P1;durP1;ratioP1;P2;durP2;ratioP2
74541;SDS011;63015;45.378;20.360;2023-08-17T00:00:24;18.45;;;13.20;;
74541;SDS011;63015;45.378;20.360;2023-08-17T00:02:25;19.45;;;12.45;;
74541;SDS011;63015;45.378;20.360;2023-08-17T00:04:25;18.35;;;14.15;;
74541;SDS011;63015;45.378;20.360;2023-08-17T00:06:26;19.35;;;12.40;;
74541;SDS011;63015;45.378;20.360;2023-08-17T00:08:26;22.42;;;13.57;;
74541;SDS011;63015;45.378;20.360;2023-08-17T00:10:27;17.50;;;12.57;;
74541;SDS011;63015;45.378;20.360;2023-08-17T00:12:28;17.60;;;12.43;;
74541;SDS011;63015;45.378;20.360;2023-08-17T00:14:29;15.65;;;11.75;;
74541;SDS011;63015;45.378;20.360;2023-08-17T00:16:30;18.27;;;11.98;;
74541;SDS011;63015;45.378;20.360;2023-08-17T00:18:31;15.50;;;11.57;;
74541;SDS011;63015;45.378;20.360;2023-08-17T00:20:32;19.77;;;12.02;;
74541;SDS011;63015;45.378;20.360;2023-08-17T00:22:33;18.73;;;13.73;;
74541;SDS011;63015;45.378;20.360;2023-08-17T00:24:33;19.08;;;13.95;;
74541;SDS011;63015;45.378;20.360;2023-08-17T00:26:34;18.20;;;13.48;;
74541;SDS011;63015;45.378;20.360;2023-08-17T00:28:34;17.63;;;13.60;;
74541;SDS011;63015;45.378;20.360;2023-08-17T00:30:35;18.92;;;12.23;;
74541;SDS011;63015;45.378;20.360;2023-08-17T00:32:37;17.17;;;13.63;;
74541;SDS011;63015;45.378;20.360;2023-08-17T00:34:38;17.00;;;13.68;;
74541;SDS011;63015;45.378;20.360;2023-08-17T00:36:38;18.75;;;14.32;;
74541;SDS011;63015;45.378;20.360;2023-08-17T00:38:40;20.15;;;13.45;;
74541;SDS011;63015;45.378;20.360;2023-08-17T00:40:41;19.80;;;14.38;;
74541;SDS011;63015;45.378;20.360;2023-08-17T00:42:41;23.58;;;16.45;;
74541;SDS011;63015;45.378;20.360;2023-08-17T00:44:42;23.90;;;14.98;;
74541;SDS011;63015;45.378;20.360;2023-08-17T00:46:42;19.63;;;14.18;;
74541;SDS011;63015;45.378;20.360;2023-08-17T00:48:43;19.45;;;15.65;;
74541;SDS011;63015;45.378;20.360;2023-08-17T00:50:44;21.92;;;14.48;;
74541;SDS011;63015;45.378;20.360;2023-08-17T00:52:49;22.70;;;15.68;;
74541;SDS011;63015;45.378;20.360;2023-08-17T00:54:51;21.02;;;16.48;;
74541;SDS011;63015;45.378;20.360;2023-08-17T00:56:52;22.33;;;16.88;;
74541;SDS011;63015;45.378;20.360;2023-08-17T00:58:53;24.60;;;16.60;;
74541;SDS011;63015;45.378;20.360;2023-08-17T01:00:54;21.27;;;16.45;;
74541;SDS011;63015;45.378;20.360;2023-08-17T01:02:55;20.65;;;15.40;;
74541;SDS011;63015;45.378;20.360;2023-08-17T01:04:56;21.23;;;16.95;;
74541;SDS011;63015;45.378;20.360;2023-08-17T01:06:58;22.42;;;16.67;;
74541;SDS011;63015;45.378;20.360;2023-08-17T01:08:59;22.17;;;15.48;;
74541;SDS011;63015;45.378;20.360;2023-08-17T01:11:08;24.20;;;15.30;;
74541;SDS011;63015;45.378;20.360;2023-08-17T01:13:14;22.73;;;16.42;;
74541;SDS011;63015;45.378;20.360;2023-08-17T01:15:20;21.90;;;16.42;;
74541;SDS011;63015;45.378;20.360;2023-08-17T01:17:42;24.15;;;15.65;;
74541;SDS011;63015;45.378;20.360;2023-08-17T01:19:47;23.45;;;15.60;;
74541;SDS011;63015;45.378;20.360;2023-08-17T01:21:50;20.45;;;15.10;;
74541;SDS011;63015;45.378;20.360;2023-08-17T01:23:57;22.33;;;16.10;;
74541;SDS011;63015;45.378;20.360;2023-08-17T01:25:59;23.08;;;17.02;;
74541;SDS011;63015;45.378;20.360;2023-08-17T01:28:00;21.77;;;15.30;;
74541;SDS011;63015;45.378;20.360;2023-08-17T01:30:01;21.95;;;14.80;;
74541;SDS011;63015;45.378;20.360;2023-08-17T01:34:14;21.70;;;15.27;;
74541;SDS011;63015;45.378;20.360;2023-08-17T01:36:20;20.67;;;15.10;;
74541;SDS011;63015;45.378;20.360;2023-08-17T01:38:25;21.88;;;15.77;;
74541;SDS011;63015;45.378;20.360;2023-08-17T01:40:29;21.17;;;15.93;;
74541;SDS011;63015;45.378;20.360;2023-08-17T01:42:33;21.67;;;15.27;;
74541;SDS011;63015;45.378;20.360;2023-08-17T01:44:33;22.30;;;17.48;;
74541;SDS011;63015;45.378;20.360;2023-08-17T01:46:34;22.10;;;16.20;;
74541;SDS011;63015;45.378;20.360;2023-08-17T01:48:35;21.42;;;15.50;;
74541;SDS011;63015;45.378;20.360;2023-08-17T01:50:38;22.73;;;14.95;;
74541;SDS011;63015;45.378;20.360;2023-08-17T01:52:39;22.63;;;15.73;;
74541;SDS011;63015;45.378;20.360;2023-08-17T01:54:39;23.23;;;16.80;;
74541;SDS011;63015;45.378;20.360;2023-08-17T01:56:40;20.10;;;16.73;;
74541;SDS011;63015;45.378;20.360;2023-08-17T01:58:41;22.25;;;16.80;;
74541;SDS011;63015;45.378;20.360;2023-08-17T02:00:41;22.17;;;15.40;;
74541;SDS011;63015;45.378;20.360;2023-08-17T02:02:42;26.80;;;15.73;;
74541;SDS011;63015;45.378;20.360;2023-08-17T02:04:42;23.75;;;16.27;;
74541;SDS011;63015;45.378;20.360;2023-08-17T02:06:44;24.40;;;16.52;;
74541;SDS011;63015;45.378;20.360;2023-08-17T02:08:45;23.90;;;17.25;;
74541;SDS011;63015;45.378;20.360;2023-08-17T02:10:45;22.70;;;16.77;;
74541;SDS011;63015;45.378;20.360;2023-08-17T02:12:46;24.92;;;18.52;;
74541;SDS011;63015;45.378;20.360;2023-08-17T02:14:47;26.05;;;18.15;;
74541;SDS011;63015;45.378;20.360;2023-08-17T02:16:49;27.30;;;18.17;;
74541;SDS011;63015;45.378;20.360;2023-08-17T02:18:50;25.90;;;18.52;;
74541;SDS011;63015;45.378;20.360;2023-08-17T02:20:51;29.50;;;18.83;;
74541;SDS011;63015;45.378;20.360;2023-08-17T02:22:52;24.60;;;16.95;;
74541;SDS011;63015;45.378;20.360;2023-08-17T02:24:52;28.65;;;18.92;;
74541;SDS011;63015;45.378;20.360;2023-08-17T02:26:53;27.02;;;19.45;;
74541;SDS011;63015;45.378;20.360;2023-08-17T02:28:53;27.35;;;18.45;;
74541;SDS011;63015;45.378;20.360;2023-08-17T02:30:57;26.33;;;18.73;;
74541;SDS011;63015;45.378;20.360;2023-08-17T02:33:01;27.00;;;19.40;;
74541;SDS011;63015;45.378;20.360;2023-08-17T02:35:02;27.50;;;18.60;;
74541;SDS011;63015;45.378;20.360;2023-08-17T02:37:02;30.10;;;20.20;;
74541;SDS011;63015;45.378;20.360;2023-08-17T02:39:03;31.10;;;20.30;;
74541;SDS011;63015;45.378;20.360;2023-08-17T02:41:04;26.50;;;18.10;;
74541;SDS011;63015;45.378;20.360;2023-08-17T02:43:04;28.70;;;19.92;;
74541;SDS011;63015;45.378;20.360;2023-08-17T02:45:06;28.00;;;19.20;;
74541;SDS011;63015;45.378;20.360;2023-08-17T02:47:07;31.40;;;21.20;;
74541;SDS011;63015;45.378;20.360;2023-08-17T02:49:08;29.90;;;20.10;;
74541;SDS011;63015;45.378;20.360;2023-08-17T02:51:08;32.38;;;19.33;;
74541;SDS011;63015;45.378;20.360;2023-08-17T02:53:09;30.50;;;20.75;;
74541;SDS011;63015;45.378;20.360;2023-08-17T02:55:10;25.73;;;18.65;;
74541;SDS011;63015;45.378;20.360;2023-08-17T02:57:10;30.92;;;20.20;;
74541;SDS011;63015;45.378;20.360;2023-08-17T02:59:11;28.33;;;21.00;;
74541;SDS011;63015;45.378;20.360;2023-08-17T03:01:12;28.33;;;20.48;;
74541;SDS011;63015;45.378;20.360;2023-08-17T03:03:13;31.63;;;20.55;;
74541;SDS011;63015;45.378;20.360;2023-08-17T03:05:13;31.90;;;20.40;;
74541;SDS011;63015;45.378;20.360;2023-08-17T03:07:14;31.60;;;22.00;;
74541;SDS011;63015;45.378;20.360;2023-08-17T03:09:14;31.42;;;20.45;;
74541;SDS011;63015;45.378;20.360;2023-08-17T03:11:15;28.42;;;17.83;;
74541;SDS011;63015;45.378;20.360;2023-08-17T03:13:16;30.83;;;20.83;;
74541;SDS011;63015;45.378;20.360;2023-08-17T03:15:17;28.48;;;19.92;;
74541;SDS011;63015;45.378;20.360;2023-08-17T03:17:18;29.30;;;20.25;;
74541;SDS011;63015;45.378;20.360;2023-08-17T03:19:18;27.27;;;19.23;;
74541;SDS011;63015;45.378;20.360;2023-08-17T03:21:19;31.90;;;21.15;;
74541;SDS011;63015;45.378;20.360;2023-08-17T03:23:21;26.58;;;19.73;;
74541;SDS011;63015;45.378;20.360;2023-08-17T03:25:22;26.00;;;17.63;;
74541;SDS011;63015;45.378;20.360;2023-08-17T03:27:22;29.05;;;20.38;;
74541;SDS011;63015;45.378;20.360;2023-08-17T03:29:24;26.42;;;18.42;;
74541;SDS011;63015;45.378;20.360;2023-08-17T03:31:26;32.95;;;21.10;;
74541;SDS011;63015;45.378;20.360;2023-08-17T03:33:27;28.83;;;19.85;;
74541;SDS011;63015;45.378;20.360;2023-08-17T03:35:28;27.13;;;18.88;;
74541;SDS011;63015;45.378;20.360;2023-08-17T03:37:28;23.70;;;19.55;;
74541;SDS011;63015;45.378;20.360;2023-08-17T03:39:29;24.50;;;18.48;;
74541;SDS011;63015;45.378;20.360;2023-08-17T03:41:30;30.35;;;20.10;;
74541;SDS011;63015;45.378;20.360;2023-08-17T03:43:31;31.85;;;21.23;;
74541;SDS011;63015;45.378;20.360;2023-08-17T03:45:33;27.85;;;20.50;;
74541;SDS011;63015;45.378;20.360;2023-08-17T03:47:33;25.17;;;18.77;;
74541;SDS011;63015;45.378;20.360;2023-08-17T03:49:35;24.75;;;18.42;;
74541;SDS011;63015;45.378;20.360;2023-08-17T03:51:35;30.42;;;19.13;;
74541;SDS011;63015;45.378;20.360;2023-08-17T03:53:36;29.38;;;20.63;;
74541;SDS011;63015;45.378;20.360;2023-08-17T03:55:36;29.60;;;20.73;;
74541;SDS011;63015;45.378;20.360;2023-08-17T03:57:37;26.65;;;18.88;;
74541;SDS011;63015;45.378;20.360;2023-08-17T03:59:38;26.13;;;20.23;;
74541;SDS011;63015;45.378;20.360;2023-08-17T04:01:38;32.33;;;19.55;;
74541;SDS011;63015;45.378;20.360;2023-08-17T04:03:39;27.77;;;19.15;;
74541;SDS011;63015;45.378;20.360;2023-08-17T04:05:39;29.10;;;21.17;;
74541;SDS011;63015;45.378;20.360;2023-08-17T04:07:40;26.25;;;18.02;;
74541;SDS011;63015;45.378;20.360;2023-08-17T04:09:43;29.10;;;19.13;;
74541;SDS011;63015;45.378;20.360;2023-08-17T04:11:45;24.83;;;19.55;;
74541;SDS011;63015;45.378;20.360;2023-08-17T04:13:45;29.30;;;19.45;;
74541;SDS011;63015;45.378;20.360;2023-08-17T04:15:46;25.80;;;18.13;;
74541;SDS011;63015;45.378;20.360;2023-08-17T04:17:46;25.83;;;18.60;;
74541;SDS011;63015;45.378;20.360;2023-08-17T04:19:47;28.42;;;18.58;;
74541;SDS011;63015;45.378;20.360;2023-08-17T04:21:47;28.45;;;19.23;;
74541;SDS011;63015;45.378;20.360;2023-08-17T04:23:49;28.83;;;17.65;;
74541;SDS011;63015;45.378;20.360;2023-08-17T04:25:49;24.88;;;17.77;;
74541;SDS011;63015;45.378;20.360;2023-08-17T04:27:50;25.52;;;18.83;;
74541;SDS011;63015;45.378;20.360;2023-08-17T04:29:51;27.33;;;17.02;;
74541;SDS011;63015;45.378;20.360;2023-08-17T04:31:52;24.75;;;18.63;;
74541;SDS011;63015;45.378;20.360;2023-08-17T04:33:53;25.23;;;18.35;;
74541;SDS011;63015;45.378;20.360;2023-08-17T04:35:54;25.95;;;18.08;;
74541;SDS011;63015;45.378;20.360;2023-08-17T04:37:55;26.08;;;19.90;;
74541;SDS011;63015;45.378;20.360;2023-08-17T04:39:56;24.85;;;17.00;;
74541;SDS011;63015;45.378;20.360;2023-08-17T04:41:57;25.20;;;17.38;;
74541;SDS011;63015;45.378;20.360;2023-08-17T04:44:04;24.13;;;17.85;;
74541;SDS011;63015;45.378;20.360;2023-08-17T04:46:05;26.00;;;17.83;;
74541;SDS011;63015;45.378;20.360;2023-08-17T04:48:06;21.60;;;16.83;;
74541;SDS011;63015;45.378;20.360;2023-08-17T04:50:07;31.13;;;18.17;;
74541;SDS011;63015;45.378;20.360;2023-08-17T04:52:08;24.50;;;17.63;;
74541;SDS011;63015;45.378;20.360;2023-08-17T04:54:09;23.52;;;17.40;;
74541;SDS011;63015;45.378;20.360;2023-08-17T04:56:09;24.63;;;17.95;;
74541;SDS011;63015;45.378;20.360;2023-08-17T04:58:10;25.38;;;18.60;;
74541;SDS011;63015;45.378;20.360;2023-08-17T05:00:11;26.88;;;17.10;;
74541;SDS011;63015;45.378;20.360;2023-08-17T05:02:13;24.02;;;16.92;;
74541;SDS011;63015;45.378;20.360;2023-08-17T05:04:13;26.15;;;18.88;;
74541;SDS011;63015;45.378;20.360;2023-08-17T05:06:14;26.23;;;18.27;;
74541;SDS011;63015;45.378;20.360;2023-08-17T05:08:14;26.95;;;16.13;;
74541;SDS011;63015;45.378;20.360;2023-08-17T05:10:15;23.42;;;17.65;;
74541;SDS011;63015;45.378;20.360;2023-08-17T05:12:16;23.85;;;16.13;;
74541;SDS011;63015;45.378;20.360;2023-08-17T05:14:18;27.10;;;17.50;;
74541;SDS011;63015;45.378;20.360;2023-08-17T05:16:18;23.58;;;17.88;;
74541;SDS011;63015;45.378;20.360;2023-08-17T05:18:19;24.08;;;17.45;;
74541;SDS011;63015;45.378;20.360;2023-08-17T05:20:20;26.75;;;17.05;;
74541;SDS011;63015;45.378;20.360;2023-08-17T05:22:21;25.38;;;16.85;;
74541;SDS011;63015;45.378;20.360;2023-08-17T05:24:21;23.98;;;17.55;;
74541;SDS011;63015;45.378;20.360;2023-08-17T05:26:22;25.15;;;16.50;;
74541;SDS011;63015;45.378;20.360;2023-08-17T05:28:24;22.88;;;17.58;;
74541;SDS011;63015;45.378;20.360;2023-08-17T05:30:24;25.92;;;17.35;;
74541;SDS011;63015;45.378;20.360;2023-08-17T05:32:25;24.17;;;17.77;;
74541;SDS011;63015;45.378;20.360;2023-08-17T05:34:27;24.27;;;18.10;;
74541;SDS011;63015;45.378;20.360;2023-08-17T05:36:29;25.58;;;18.33;;
74541;SDS011;63015;45.378;20.360;2023-08-17T05:38:30;24.42;;;18.42;;
74541;SDS011;63015;45.378;20.360;2023-08-17T05:40:31;24.05;;;18.35;;
74541;SDS011;63015;45.378;20.360;2023-08-17T05:42:32;21.83;;;16.45;;
74541;SDS011;63015;45.378;20.360;2023-08-17T05:44:33;21.55;;;16.02;;
74541;SDS011;63015;45.378;20.360;2023-08-17T05:46:33;23.05;;;15.20;;
74541;SDS011;63015;45.378;20.360;2023-08-17T05:48:34;22.55;;;16.35;;
74541;SDS011;63015;45.378;20.360;2023-08-17T05:50:34;21.63;;;15.68;;
74541;SDS011;63015;45.378;20.360;2023-08-17T05:52:35;19.02;;;15.85;;
74541;SDS011;63015;45.378;20.360;2023-08-17T05:54:36;20.58;;;15.35;;
74541;SDS011;63015;45.378;20.360;2023-08-17T05:56:36;21.63;;;16.45;;
74541;SDS011;63015;45.378;20.360;2023-08-17T05:58:37;22.42;;;16.17;;
74541;SDS011;63015;45.378;20.360;2023-08-17T06:00:37;25.90;;;16.50;;
74541;SDS011;63015;45.378;20.360;2023-08-17T06:02:39;21.30;;;15.95;;
74541;SDS011;63015;45.378;20.360;2023-08-17T06:04:39;17.83;;;14.63;;
74541;SDS011;63015;45.378;20.360;2023-08-17T06:06:40;19.92;;;14.32;;
74541;SDS011;63015;45.378;20.360;2023-08-17T06:08:41;23.10;;;14.77;;
74541;SDS011;63015;45.378;20.360;2023-08-17T06:10:41;20.92;;;15.45;;
74541;SDS011;63015;45.378;20.360;2023-08-17T06:12:42;19.35;;;13.77;;
74541;SDS011;63015;45.378;20.360;2023-08-17T06:14:42;21.55;;;15.77;;
74541;SDS011;63015;45.378;20.360;2023-08-17T06:16:43;21.30;;;15.23;;
74541;SDS011;63015;45.378;20.360;2023-08-17T06:18:43;17.77;;;14.32;;
74541;SDS011;63015;45.378;20.360;2023-08-17T06:20:44;17.13;;;13.52;;
74541;SDS011;63015;45.378;20.360;2023-08-17T06:22:47;18.13;;;13.75;;
74541;SDS011;63015;45.378;20.360;2023-08-17T06:24:49;16.50;;;13.68;;
74541;SDS011;63015;45.378;20.360;2023-08-17T06:26:49;19.23;;;14.18;;
74541;SDS011;63015;45.378;20.360;2023-08-17T06:28:51;16.55;;;13.88;;
74541;SDS011;63015;45.378;20.360;2023-08-17T06:30:54;17.20;;;13.73;;
74541;SDS011;63015;45.378;20.360;2023-08-17T06:32:56;16.23;;;13.65;;
74541;SDS011;63015;45.378;20.360;2023-08-17T06:34:56;15.63;;;13.20;;
74541;SDS011;63015;45.378;20.360;2023-08-17T06:36:58;16.98;;;13.68;;
74541;SDS011;63015;45.378;20.360;2023-08-17T06:39:00;16.42;;;12.90;;
74541;SDS011;63015;45.378;20.360;2023-08-17T06:41:00;16.60;;;12.90;;
74541;SDS011;63015;45.378;20.360;2023-08-17T06:43:01;18.40;;;12.35;;
74541;SDS011;63015;45.378;20.360;2023-08-17T06:45:02;17.48;;;12.80;;
74541;SDS011;63015;45.378;20.360;2023-08-17T06:47:03;16.08;;;11.88;;
74541;SDS011;63015;45.378;20.360;2023-08-17T06:49:04;18.08;;;12.55;;
74541;SDS011;63015;45.378;20.360;2023-08-17T06:51:04;15.35;;;11.65;;
74541;SDS011;63015;45.378;20.360;2023-08-17T06:53:05;14.95;;;11.70;;
74541;SDS011;63015;45.378;20.360;2023-08-17T06:55:06;16.23;;;11.90;;
74541;SDS011;63015;45.378;20.360;2023-08-17T06:57:06;14.38;;;11.13;;
74541;SDS011;63015;45.378;20.360;2023-08-17T06:59:07;13.05;;;10.13;;
74541;SDS011;63015;45.378;20.360;2023-08-17T07:01:07;13.43;;;11.52;;
74541;SDS011;63015;45.378;20.360;2023-08-17T07:03:08;14.52;;;10.45;;
74541;SDS011;63015;45.378;20.360;2023-08-17T07:05:09;13.85;;;10.52;;
74541;SDS011;63015;45.378;20.360;2023-08-17T07:07:10;14.13;;;11.93;;
74541;SDS011;63015;45.378;20.360;2023-08-17T07:09:11;13.82;;;10.98;;
74541;SDS011;63015;45.378;20.360;2023-08-17T07:11:12;18.45;;;11.70;;
74541;SDS011;63015;45.378;20.360;2023-08-17T07:13:13;16.10;;;12.35;;
74541;SDS011;63015;45.378;20.360;2023-08-17T07:15:13;15.07;;;11.52;;
74541;SDS011;63015;45.378;20.360;2023-08-17T07:17:15;13.82;;;10.80;;
74541;SDS011;63015;45.378;20.360;2023-08-17T07:19:15;13.63;;;10.52;;
74541;SDS011;63015;45.378;20.360;2023-08-17T07:21:16;14.07;;;11.35;;
74541;SDS011;63015;45.378;20.360;2023-08-17T07:23:16;15.00;;;11.85;;
74541;SDS011;63015;45.378;20.360;2023-08-17T07:25:17;14.10;;;10.98;;
74541;SDS011;63015;45.378;20.360;2023-08-17T07:27:18;13.10;;;10.63;;
74541;SDS011;63015;45.378;20.360;2023-08-17T07:29:18;15.30;;;10.75;;
74541;SDS011;63015;45.378;20.360;2023-08-17T07:31:19;17.50;;;11.00;;
74541;SDS011;63015;45.378;20.360;2023-08-17T07:33:19;16.25;;;11.60;;
74541;SDS011;63015;45.378;20.360;2023-08-17T07:35:20;14.73;;;11.32;;
74541;SDS011;63015;45.378;20.360;2023-08-17T07:37:20;16.17;;;11.25;;
74541;SDS011;63015;45.378;20.360;2023-08-17T07:39:21;14.70;;;11.55;;
74541;SDS011;63015;45.378;20.360;2023-08-17T07:41:22;16.20;;;12.32;;
74541;SDS011;63015;45.378;20.360;2023-08-17T07:43:22;16.30;;;12.02;;
74541;SDS011;63015;45.378;20.360;2023-08-17T07:45:23;15.05;;;11.50;;
74541;SDS011;63015;45.378;20.360;2023-08-17T07:47:24;15.65;;;10.75;;
74541;SDS011;63015;45.378;20.360;2023-08-17T07:49:25;16.90;;;12.35;;
74541;SDS011;63015;45.378;20.360;2023-08-17T07:51:25;15.45;;;12.30;;
74541;SDS011;63015;45.378;20.360;2023-08-17T07:53:26;15.80;;;12.55;;
74541;SDS011;63015;45.378;20.360;2023-08-17T07:55:26;15.35;;;9.82;;
74541;SDS011;63015;45.378;20.360;2023-08-17T07:57:27;16.20;;;11.02;;
74541;SDS011;63015;45.378;20.360;2023-08-17T07:59:28;12.85;;;11.52;;
74541;SDS011;63015;45.378;20.360;2023-08-17T08:01:28;12.80;;;10.95;;
74541;SDS011;63015;45.378;20.360;2023-08-17T08:03:29;13.50;;;11.57;;
74541;SDS011;63015;45.378;20.360;2023-08-17T08:05:29;14.73;;;12.07;;
74541;SDS011;63015;45.378;20.360;2023-08-17T08:07:30;16.58;;;11.80;;
74541;SDS011;63015;45.378;20.360;2023-08-17T08:09:30;15.80;;;10.07;;
74541;SDS011;63015;45.378;20.360;2023-08-17T08:11:31;14.20;;;9.65;;
74541;SDS011;63015;45.378;20.360;2023-08-17T08:13:32;11.68;;;10.13;;
74541;SDS011;63015;45.378;20.360;2023-08-17T08:15:35;12.05;;;10.25;;
74541;SDS011;63015;45.378;20.360;2023-08-17T08:17:36;13.30;;;10.50;;
74541;SDS011;63015;45.378;20.360;2023-08-17T08:19:37;12.50;;;10.07;;
74541;SDS011;63015;45.378;20.360;2023-08-17T08:21:37;12.00;;;9.30;;
74541;SDS011;63015;45.378;20.360;2023-08-17T08:23:38;11.93;;;8.68;;
74541;SDS011;63015;45.378;20.360;2023-08-17T08:25:38;12.48;;;11.18;;
74541;SDS011;63015;45.378;20.360;2023-08-17T08:27:39;13.40;;;10.98;;
74541;SDS011;63015;45.378;20.360;2023-08-17T08:29:39;13.25;;;9.88;;
74541;SDS011;63015;45.378;20.360;2023-08-17T08:31:40;11.80;;;10.55;;
74541;SDS011;63015;45.378;20.360;2023-08-17T08:33:41;14.82;;;10.68;;
74541;SDS011;63015;45.378;20.360;2023-08-17T08:35:41;15.30;;;11.50;;
74541;SDS011;63015;45.378;20.360;2023-08-17T08:37:42;12.98;;;11.27;;
74541;SDS011;63015;45.378;20.360;2023-08-17T08:39:52;13.30;;;11.65;;
74541;SDS011;63015;45.378;20.360;2023-08-17T08:41:54;13.30;;;11.93;;
74541;SDS011;63015;45.378;20.360;2023-08-17T08:43:55;14.52;;;12.80;;
74541;SDS011;63015;45.378;20.360;2023-08-17T08:45:56;13.10;;;11.60;;
74541;SDS011;63015;45.378;20.360;2023-08-17T08:47:59;14.35;;;12.70;;
74541;SDS011;63015;45.378;20.360;2023-08-17T08:50:02;14.32;;;12.13;;
74541;SDS011;63015;45.378;20.360;2023-08-17T08:54:07;15.15;;;12.52;;
74541;SDS011;63015;45.378;20.360;2023-08-17T08:56:12;15.27;;;12.77;;
74541;SDS011;63015;45.378;20.360;2023-08-17T08:58:15;16.67;;;12.63;;
74541;SDS011;63015;45.378;20.360;2023-08-17T09:00:17;14.63;;;12.63;;
74541;SDS011;63015;45.378;20.360;2023-08-17T09:02:18;15.02;;;11.98;;
74541;SDS011;63015;45.378;20.360;2023-08-17T09:04:19;15.45;;;12.68;;
74541;SDS011;63015;45.378;20.360;2023-08-17T09:06:19;15.18;;;12.35;;
74541;SDS011;63015;45.378;20.360;2023-08-17T09:08:24;15.38;;;12.18;;
74541;SDS011;63015;45.378;20.360;2023-08-17T09:10:28;14.68;;;11.27;;
74541;SDS011;63015;45.378;20.360;2023-08-17T09:12:29;14.35;;;10.30;;
74541;SDS011;63015;45.378;20.360;2023-08-17T09:14:30;16.55;;;10.65;;
74541;SDS011;63015;45.378;20.360;2023-08-17T09:16:30;12.85;;;10.77;;
74541;SDS011;63015;45.378;20.360;2023-08-17T09:18:31;12.65;;;10.30;;
74541;SDS011;63015;45.378;20.360;2023-08-17T09:20:38;14.88;;;11.15;;
74541;SDS011;63015;45.378;20.360;2023-08-17T09:22:45;12.23;;;10.75;;
74541;SDS011;63015;45.378;20.360;2023-08-17T09:24:45;13.55;;;9.43;;
74541;SDS011;63015;45.378;20.360;2023-08-17T09:26:48;16.40;;;11.35;;
74541;SDS011;63015;45.378;20.360;2023-08-17T09:28:52;13.05;;;11.27;;
74541;SDS011;63015;45.378;20.360;2023-08-17T09:30:57;16.00;;;10.80;;
74541;SDS011;63015;45.378;20.360;2023-08-17T09:33:01;15.70;;;11.30;;
74541;SDS011;63015;45.378;20.360;2023-08-17T09:35:03;14.73;;;10.77;;
74541;SDS011;63015;45.378;20.360;2023-08-17T09:37:05;12.70;;;10.45;;
74541;SDS011;63015;45.378;20.360;2023-08-17T09:39:06;14.75;;;10.90;;
74541;SDS011;63015;45.378;20.360;2023-08-17T09:41:06;12.00;;;10.18;;
74541;SDS011;63015;45.378;20.360;2023-08-17T09:43:08;11.15;;;9.70;;
74541;SDS011;63015;45.378;20.360;2023-08-17T09:45:09;14.15;;;9.98;;
74541;SDS011;63015;45.378;20.360;2023-08-17T09:47:10;13.63;;;9.32;;
74541;SDS011;63015;45.378;20.360;2023-08-17T09:49:11;11.55;;;9.35;;
74541;SDS011;63015;45.378;20.360;2023-08-17T09:51:14;11.70;;;9.48;;
74541;SDS011;63015;45.378;20.360;2023-08-17T09:53:16;11.52;;;9.13;;
74541;SDS011;63015;45.378;20.360;2023-08-17T09:55:18;10.20;;;9.20;;
74541;SDS011;63015;45.378;20.360;2023-08-17T09:57:20;11.05;;;9.43;;
74541;SDS011;63015;45.378;20.360;2023-08-17T09:59:21;13.40;;;9.80;;
74541;SDS011;63015;45.378;20.360;2023-08-17T10:01:23;13.48;;;9.80;;
74541;SDS011;63015;45.378;20.360;2023-08-17T10:03:25;12.00;;;10.25;;
74541;SDS011;63015;45.378;20.360;2023-08-17T10:05:30;11.63;;;9.43;;
74541;SDS011;63015;45.378;20.360;2023-08-17T10:07:35;12.85;;;10.25;;
74541;SDS011;63015;45.378;20.360;2023-08-17T10:09:42;11.52;;;10.30;;
74541;SDS011;63015;45.378;20.360;2023-08-17T10:11:46;12.15;;;10.90;;
74541;SDS011;63015;45.378;20.360;2023-08-17T10:13:56;14.15;;;10.63;;
74541;SDS011;63015;45.378;20.360;2023-08-17T10:16:06;13.63;;;11.70;;
74541;SDS011;63015;45.378;20.360;2023-08-17T10:18:29;13.82;;;11.82;;
74541;SDS011;63015;45.378;20.360;2023-08-17T10:20:36;16.88;;;11.18;;
74541;SDS011;63015;45.378;20.360;2023-08-17T10:25:01;15.70;;;11.35;;
74541;SDS011;63015;45.378;20.360;2023-08-17T10:27:03;14.50;;;11.02;;
74541;SDS011;63015;45.378;20.360;2023-08-17T10:29:06;15.77;;;10.85;;
74541;SDS011;63015;45.378;20.360;2023-08-17T10:31:08;14.02;;;10.60;;
74541;SDS011;63015;45.378;20.360;2023-08-17T10:33:09;14.50;;;10.25;;
74541;SDS011;63015;45.378;20.360;2023-08-17T10:35:10;12.23;;;8.60;;
74541;SDS011;63015;45.378;20.360;2023-08-17T10:37:11;11.50;;;8.45;;
74541;SDS011;63015;45.378;20.360;2023-08-17T10:39:23;10.98;;;8.82;;
74541;SDS011;63015;45.378;20.360;2023-08-17T10:41:25;10.52;;;9.15;;
74541;SDS011;63015;45.378;20.360;2023-08-17T10:43:32;10.52;;;9.43;;
74541;SDS011;63015;45.378;20.360;2023-08-17T10:45:34;11.93;;;9.02;;
74541;SDS011;63015;45.378;20.360;2023-08-17T10:47:37;9.55;;;8.63;;
74541;SDS011;63015;45.378;20.360;2023-08-17T10:49:38;9.65;;;8.65;;
74541;SDS011;63015;45.378;20.360;2023-08-17T10:51:42;10.30;;;8.77;;
74541;SDS011;63015;45.378;20.360;2023-08-17T10:54:02;10.38;;;8.77;;
74541;SDS011;63015;45.378;20.360;2023-08-17T10:56:04;15.65;;;8.88;;
74541;SDS011;63015;45.378;20.360;2023-08-17T10:58:08;10.75;;;8.88;;
74541;SDS011;63015;45.378;20.360;2023-08-17T11:02:24;10.68;;;8.68;;
74541;SDS011;63015;45.378;20.360;2023-08-17T11:04:25;22.13;;;9.38;;
74541;SDS011;63015;45.378;20.360;2023-08-17T11:06:25;11.90;;;8.77;;
74541;SDS011;63015;45.378;20.360;2023-08-17T11:08:31;16.77;;;10.10;;
74541;SDS011;63015;45.378;20.360;2023-08-17T11:10:34;16.38;;;10.02;;
74541;SDS011;63015;45.378;20.360;2023-08-17T11:12:35;11.55;;;9.35;;
74541;SDS011;63015;45.378;20.360;2023-08-17T11:14:36;13.93;;;9.77;;
74541;SDS011;63015;45.378;20.360;2023-08-17T11:16:36;11.10;;;9.50;;
74541;SDS011;63015;45.378;20.360;2023-08-17T11:18:38;15.38;;;9.00;;
74541;SDS011;63015;45.378;20.360;2023-08-17T11:20:39;13.25;;;9.90;;
74541;SDS011;63015;45.378;20.360;2023-08-17T11:22:41;14.45;;;9.77;;
74541;SDS011;63015;45.378;20.360;2023-08-17T11:24:43;14.00;;;10.18;;
74541;SDS011;63015;45.378;20.360;2023-08-17T11:26:44;10.60;;;9.40;;
74541;SDS011;63015;45.378;20.360;2023-08-17T11:28:44;11.75;;;10.23;;
74541;SDS011;63015;45.378;20.360;2023-08-17T11:30:55;16.63;;;10.52;;
74541;SDS011;63015;45.378;20.360;2023-08-17T11:33:00;15.07;;;10.23;;
74541;SDS011;63015;45.378;20.360;2023-08-17T11:35:01;14.57;;;10.00;;
74541;SDS011;63015;45.378;20.360;2023-08-17T11:37:02;12.10;;;10.27;;
74541;SDS011;63015;45.378;20.360;2023-08-17T11:39:04;14.57;;;10.02;;
74541;SDS011;63015;45.378;20.360;2023-08-17T11:41:05;13.52;;;10.00;;
74541;SDS011;63015;45.378;20.360;2023-08-17T11:43:09;12.02;;;10.15;;
74541;SDS011;63015;45.378;20.360;2023-08-17T11:45:10;13.75;;;10.30;;
74541;SDS011;63015;45.378;20.360;2023-08-17T11:47:10;13.15;;;9.60;;
74541;SDS011;63015;45.378;20.360;2023-08-17T11:49:12;13.45;;;10.07;;
74541;SDS011;63015;45.378;20.360;2023-08-17T11:51:13;11.77;;;8.30;;